Time;durP1;ratioP1;P1;durP2;ratioP2;P2;SDS_P1;SDS_P2;PMS_P1;PMS_P2;Temp;Humidity;BMP_temperature;BMP_pressure;BME280_temperature;BME280_humidity;BME280_pressure;Samples;Min_cycle;Max_cycle;Signal;HPM_P1;HPM_P2
2021/07/28 00:00:52;;;;;;;16.30;7.25;;;;;;;;;;5060424;28;20263;-67
2021/07/28 00:03:17;;;;;;;11.13;6.07;;;;;;;;;;5045690;28;20016;-67
2021/07/28 00:05:42;;;;;;;12.80;6.33;;;;;;;;;;5071277;28;20267;-66
2021/07/28 00:08:07;;;;;;;13.90;6.63;;;;;;;;;;5061458;28;20287;-66
2021/07/28 00:10:33;;;;;;;15.32;7.00;;;;;;;;;;5070986;28;20293;-66
2021/07/28 00:12:58;;;;;;;17.52;7.57;;;;;;;;;;5073390;28;20029;-66
2021/07/28 00:15:23;;;;;;;12.60;6.30;;;;;;;;;;5060774;28;20530;-67
2021/07/28 00:17:51;;;;;;;11.68;6.75;;;;;;;;;;5068546;28;20451;-67
2021/07/28 00:25:33;;;;;;;15.93;6.82;;;;;;;;;;5064101;28;20099;-67
2021/07/28 00:27:58;;;;;;;15.93;7.82;;;;;;;;;;5059863;28;20036;-67
2021/07/28 00:30:24;;;;;;;14.70;7.53;;;;;;;;;;5063943;28;20028;-67
2021/07/28 00:32:49;;;;;;;9.93;6.87;;;;;;;;;;5065607;28;20820;-67
2021/07/28 00:35:14;;;;;;;14.63;7.07;;;;;;;;;;5061370;28;20278;-67
2021/07/28 00:37:40;;;;;;;14.23;7.75;;;;;;;;;;5057748;28;20044;-67
2021/07/28 00:40:06;;;;;;;12.07;7.80;;;;;;;;;;5055845;28;20032;-67
2021/07/28 00:42:31;;;;;;;13.27;7.07;;;;;;;;;;5066434;28;20112;-67
2021/07/28 00:44:56;;;;;;;15.90;7.72;;;;;;;;;;5069801;28;20166;-66
2021/07/28 00:47:22;;;;;;;11.33;6.23;;;;;;;;;;5053348;28;20056;-67
2021/07/28 00:49:47;;;;;;;14.45;7.20;;;;;;;;;;5062639;28;20263;-66
2021/07/28 00:52:12;;;;;;;19.98;6.68;;;;;;;;;;5064767;28;20039;-67
2021/07/28 00:54:39;;;;;;;12.35;6.43;;;;;;;;;;5062028;28;20009;-66
2021/07/28 00:57:05;;;;;;;8.90;4.50;;;;;;;;;;5058475;28;20040;-66
2021/07/28 00:59:30;;;;;;;13.43;7.70;;;;;;;;;;5061334;28;20023;-66
2021/07/28 01:01:56;;;;;;;7.32;4.40;;;;;;;;;;5070484;28;20099;-67
2021/07/28 01:04:21;;;;;;;14.70;7.45;;;;;;;;;;5072035;28;20056;-67
2021/07/28 01:06:46;;;;;;;11.90;6.97;;;;;;;;;;5066533;28;20033;-67
2021/07/28 01:09:11;;;;;;;12.73;7.43;;;;;;;;;;5063386;28;20055;-67
2021/07/28 01:11:37;;;;;;;12.85;5.70;;;;;;;;;;5057629;28;20079;-67
2021/07/28 01:14:04;;;;;;;11.32;7.07;;;;;;;;;;5062282;28;20021;-67
2021/07/28 01:16:31;;;;;;;7.93;4.65;;;;;;;;;;5067093;28;20047;-67
2021/07/28 01:18:56;;;;;;;11.25;6.10;;;;;;;;;;5051733;28;20024;-68
2021/07/28 01:21:21;;;;;;;12.63;6.77;;;;;;;;;;5059012;28;20557;-68
2021/07/28 01:23:48;;;;;;;14.07;6.97;;;;;;;;;;5069398;28;20298;-67
2021/07/28 01:26:14;;;;;;;14.70;7.40;;;;;;;;;;5053967;28;20263;-66
2021/07/28 01:28:40;;;;;;;16.00;5.80;;;;;;;;;;5049734;28;20032;-67
2021/07/28 01:31:12;;;;;;;11.55;7.00;;;;;;;;;;5049647;28;20064;-66
2021/07/28 01:33:38;;;;;;;18.02;7.10;;;;;;;;;;5059005;28;20020;-67
2021/07/28 01:36:05;;;;;;;8.05;3.90;;;;;;;;;;5069406;28;20447;-67
2021/07/28 01:38:30;;;;;;;9.93;6.22;;;;;;;;;;5065201;28;20016;-67
2021/07/28 01:40:56;;;;;;;9.32;4.55;;;;;;;;;;5059368;28;20124;-66
2021/07/28 01:43:21;;;;;;;11.32;6.65;;;;;;;;;;5062325;28;20029;-66
2021/07/28 01:45:46;;;;;;;12.38;6.47;;;;;;;;;;5049263;28;20029;-67
2021/07/28 01:48:12;;;;;;;12.57;7.07;;;;;;;;;;5057945;28;20024;-66
2021/07/28 01:50:37;;;;;;;17.50;7.45;;;;;;;;;;5067525;28;20031;-66
2021/07/28 01:53:03;;;;;;;9.07;4.17;;;;;;;;;;5066747;28;20025;-67
2021/07/28 01:55:28;;;;;;;12.23;6.10;;;;;;;;;;5052256;28;20619;-66
2021/07/28 01:57:54;;;;;;;15.35;6.22;;;;;;;;;;5050966;28;20024;-67
2021/07/28 02:00:19;;;;;;;13.93;7.70;;;;;;;;;;5052469;28;20064;-66
2021/07/28 02:02:44;;;;;;;13.32;4.35;;;;;;;;;;5070928;28;20041;-66
2021/07/28 02:05:10;;;;;;;15.57;9.07;;;;;;;;;;5053870;28;20082;-66
2021/07/28 02:07:35;;;;;;;12.00;8.00;;;;;;;;;;5054019;28;20734;-67
2021/07/28 02:10:00;;;;;;;14.27;7.80;;;;;;;;;;5055353;28;20032;-67
2021/07/28 02:12:25;;;;;;;19.93;7.50;;;;;;;;;;5058046;28;20814;-66
2021/07/28 02:14:51;;;;;;;23.65;7.57;;;;;;;;;;5062402;28;20264;-67
2021/07/28 02:17:16;;;;;;;11.33;5.53;;;;;;;;;;5063646;28;20447;-66
2021/07/28 02:19:41;;;;;;;13.65;7.45;;;;;;;;;;5054062;28;20271;-67
2021/07/28 02:22:06;;;;;;;13.50;5.40;;;;;;;;;;5068592;28;20108;-66
2021/07/28 02:24:32;;;;;;;13.15;7.00;;;;;;;;;;5066104;28;20016;-67
2021/07/28 02:26:57;;;;;;;13.65;7.18;;;;;;;;;;5050559;28;20019;-66
2021/07/28 02:29:22;;;;;;;13.07;6.93;;;;;;;;;;5059579;28;20056;-67
2021/07/28 02:31:47;;;;;;;8.33;5.53;;;;;;;;;;5063120;28;20336;-66
2021/07/28 02:34:12;;;;;;;14.90;7.13;;;;;;;;;;5058018;28;20294;-66
2021/07/28 02:36:37;;;;;;;13.00;5.53;;;;;;;;;;5067223;28;20068;-66
2021/07/28 02:39:03;;;;;;;11.70;6.03;;;;;;;;;;5054122;28;20337;-67
2021/07/28 02:41:28;;;;;;;12.40;8.40;;;;;;;;;;5057779;28;20322;-66
2021/07/28 02:43:53;;;;;;;11.70;4.00;;;;;;;;;;5053021;28;20633;-67
2021/07/28 02:46:21;;;;;;;15.25;6.68;;;;;;;;;;5063136;28;20275;-67
2021/07/28 02:48:46;;;;;;;13.90;8.07;;;;;;;;;;5060634;28;20040;-66
2021/07/28 02:51:11;;;;;;;20.55;8.43;;;;;;;;;;5060899;28;20143;-67
2021/07/28 02:53:36;;;;;;;17.50;8.70;;;;;;;;;;5050626;28;20374;-67
2021/07/28 02:56:01;;;;;;;15.65;8.50;;;;;;;;;;5072276;28;20265;-66
2021/07/28 02:58:27;;;;;;;21.40;8.70;;;;;;;;;;5071539;28;20023;-67
2021/07/28 03:00:53;;;;;;;21.63;9.37;;;;;;;;;;5063941;28;20262;-66
2021/07/28 03:03:18;;;;;;;15.00;8.75;;;;;;;;;;5070512;28;20271;-67
2021/07/28 03:05:43;;;;;;;15.10;8.47;;;;;;;;;;5044726;28;20036;-67
2021/07/28 03:08:09;;;;;;;15.70;7.27;;;;;;;;;;5071278;28;21002;-67
2021/07/28 03:10:34;;;;;;;14.00;8.07;;;;;;;;;;5074477;28;20290;-66
2021/07/28 03:12:59;;;;;;;16.90;8.63;;;;;;;;;;5060424;28;20267;-66
2021/07/28 03:15:24;;;;;;;13.38;8.63;;;;;;;;;;5060723;28;20278;-66
2021/07/28 03:17:49;;;;;;;16.50;9.80;;;;;;;;;;5057844;28;20487;-67
2021/07/28 03:20:15;;;;;;;15.47;9.33;;;;;;;;;;5071936;28;20031;-66
2021/07/28 03:22:40;;;;;;;19.92;9.55;;;;;;;;;;5045625;28;20259;-66
2021/07/28 03:25:05;;;;;;;31.40;10.67;;;;;;;;;;5063174;28;20035;-66
2021/07/28 03:27:30;;;;;;;20.85;8.43;;;;;;;;;;5059484;28;20273;-66
2021/07/28 03:29:55;;;;;;;17.67;9.27;;;;;;;;;;5064203;28;20404;-66
2021/07/28 03:32:21;;;;;;;16.97;9.77;;;;;;;;;;5064252;28;20128;-67
2021/07/28 03:34:46;;;;;;;15.40;8.43;;;;;;;;;;5072189;28;20349;-66
2021/07/28 03:37:11;;;;;;;15.32;7.53;;;;;;;;;;5069411;28;20111;-66
2021/07/28 03:39:36;;;;;;;18.70;8.93;;;;;;;;;;5069744;28;20017;-67
2021/07/28 03:42:01;;;;;;;19.10;9.10;;;;;;;;;;5063865;28;20422;-67
2021/07/28 03:44:27;;;;;;;12.93;6.93;;;;;;;;;;5068148;28;20430;-66
2021/07/28 03:46:52;;;;;;;16.23;9.50;;;;;;;;;;5056607;28;20263;-66
2021/07/28 03:49:17;;;;;;;19.73;9.30;;;;;;;;;;5057817;28;20284;-67
2021/07/28 03:51:42;;;;;;;15.57;7.82;;;;;;;;;;5066105;28;20480;-67
2021/07/28 03:54:07;;;;;;;18.87;9.67;;;;;;;;;;5073998;28;20056;-66
2021/07/28 03:56:33;;;;;;;14.70;7.40;;;;;;;;;;5066333;28;20278;-67
2021/07/28 03:58:58;;;;;;;18.50;7.97;;;;;;;;;;5060468;28;20033;-66
2021/07/28 04:01:23;;;;;;;17.17;9.40;;;;;;;;;;5061369;28;20288;-66
2021/07/28 04:03:52;;;;;;;17.70;8.35;;;;;;;;;;5066338;28;20270;-66
2021/07/28 04:06:17;;;;;;;17.23;7.95;;;;;;;;;;5069912;28;20036;-66
2021/07/28 04:08:43;;;;;;;16.60;7.68;;;;;;;;;;5055708;28;20043;-66
2021/07/28 04:11:08;;;;;;;28.27;8.65;;;;;;;;;;5062453;28;20117;-67
2021/07/28 04:13:33;;;;;;;16.53;9.43;;;;;;;;;;5073119;28;20051;-66
2021/07/28 04:15:58;;;;;;;22.50;8.43;;;;;;;;;;5069839;28;20277;-67
2021/07/28 04:18:24;;;;;;;17.58;7.65;;;;;;;;;;5058123;28;20325;-67
2021/07/28 04:20:49;;;;;;;17.08;9.30;;;;;;;;;;5067929;28;20405;-67
2021/07/28 04:23:14;;;;;;;10.83;6.13;;;;;;;;;;5060699;28;20567;-67
2021/07/28 04:25:39;;;;;;;12.67;7.33;;;;;;;;;;5065828;28;20263;-66
2021/07/28 04:28:04;;;;;;;15.30;9.57;;;;;;;;;;5069886;28;20707;-66
2021/07/28 04:30:29;;;;;;;17.57;8.20;;;;;;;;;;5064571;28;20035;-66
2021/07/28 04:32:54;;;;;;;20.43;9.83;;;;;;;;;;5057706;28;20275;-67
2021/07/28 04:35:20;;;;;;;17.43;6.40;;;;;;;;;;5068091;28;20260;-66
2021/07/28 04:37:45;;;;;;;20.30;9.30;;;;;;;;;;5060159;28;20412;-66
2021/07/28 04:40:10;;;;;;;14.23;8.20;;;;;;;;;;5067035;28;20024;-67
2021/07/28 04:42:37;;;;;;;12.05;6.20;;;;;;;;;;5061092;28;20795;-66
2021/07/28 04:45:02;;;;;;;16.42;8.18;;;;;;;;;;5068544;28;20024;-66
2021/07/28 04:47:27;;;;;;;16.10;8.63;;;;;;;;;;5053446;28;20024;-67
2021/07/28 04:49:53;;;;;;;13.60;7.93;;;;;;;;;;5052049;28;20064;-66
2021/07/28 04:52:23;;;;;;;17.20;8.07;;;;;;;;;;5065128;28;20030;-67
2021/07/28 04:54:48;;;;;;;13.63;6.13;;;;;;;;;;5057971;28;20263;-67
2021/07/28 04:57:13;;;;;;;7.15;4.55;;;;;;;;;;5057683;28;20048;-66
2021/07/28 04:59:38;;;;;;;14.88;7.57;;;;;;;;;;5055964;28;20016;-67
2021/07/28 05:02:03;;;;;;;14.07;6.17;;;;;;;;;;5057425;28;20043;-67
2021/07/28 05:04:29;;;;;;;9.80;5.85;;;;;;;;;;5060660;28;20320;-66
2021/07/28 05:06:54;;;;;;;11.03;5.57;;;;;;;;;;5061640;28;20504;-66
2021/07/28 05:09:19;;;;;;;19.92;7.97;;;;;;;;;;5063588;28;20267;-67
2021/07/28 05:11:45;;;;;;;7.80;4.65;;;;;;;;;;5061437;28;20024;-67
2021/07/28 05:14:10;;;;;;;19.70;7.57;;;;;;;;;;5035199;28;20017;-67
2021/07/28 05:16:35;;;;;;;23.07;8.17;;;;;;;;;;5062777;28;20343;-67
2021/07/28 05:19:00;;;;;;;12.80;7.72;;;;;;;;;;5056901;28;20270;-66
2021/07/28 05:21:25;;;;;;;11.38;6.10;;;;;;;;;;5064233;28;20021;-67
2021/07/28 05:23:51;;;;;;;14.13;6.22;;;;;;;;;;5060077;28;20526;-66
2021/07/28 05:26:16;;;;;;;10.00;5.00;;;;;;;;;;5068393;28;20024;-66
2021/07/28 05:28:41;;;;;;;13.50;7.63;;;;;;;;;;5067225;28;20031;-67
2021/07/28 05:31:06;;;;;;;16.73;7.10;;;;;;;;;;5065878;28;20373;-67
2021/07/28 05:33:31;;;;;;;15.40;7.00;;;;;;;;;;5069083;28;20623;-67
2021/07/28 05:35:57;;;;;;;8.53;4.67;;;;;;;;;;5053273;28;20032;-66
2021/07/28 05:38:22;;;;;;;15.30;7.30;;;;;;;;;;5055267;28;20270;-67
2021/07/28 05:40:47;;;;;;;13.60;5.75;;;;;;;;;;5062398;28;20036;-67
2021/07/28 05:43:12;;;;;;;12.80;5.47;;;;;;;;;;5069286;28;20031;-67
2021/07/28 05:45:37;;;;;;;21.43;5.87;;;;;;;;;;5068819;28;20267;-67
2021/07/28 05:48:03;;;;;;;13.25;5.32;;;;;;;;;;5060096;28;20303;-66
2021/07/28 05:50:28;;;;;;;12.45;6.78;;;;;;;;;;5049370;28;20028;-67
2021/07/28 05:52:53;;;;;;;20.15;8.55;;;;;;;;;;5055873;28;20024;-66
2021/07/28 05:55:18;;;;;;;16.52;7.05;;;;;;;;;;5062454;28;20043;-67
2021/07/28 05:57:45;;;;;;;7.40;3.13;;;;;;;;;;5049847;28;20039;-66
2021/07/28 06:00:10;;;;;;;11.80;7.10;;;;;;;;;;5054638;28;20272;-66
2021/07/28 06:02:36;;;;;;;21.20;8.20;;;;;;;;;;5056126;28;20046;-66
2021/07/28 06:05:01;;;;;;;20.17;7.63;;;;;;;;;;5059971;28;20032;-65
2021/07/28 06:07:26;;;;;;;12.82;6.45;;;;;;;;;;5047163;28;20271;-66
2021/07/28 06:09:51;;;;;;;6.93;3.97;;;;;;;;;;5062911;28;20107;-66
2021/07/28 06:12:17;;;;;;;12.45;7.13;;;;;;;;;;5068075;28;20403;-66
2021/07/28 06:14:42;;;;;;;13.10;6.80;;;;;;;;;;5056122;28;20036;-66
2021/07/28 06:17:08;;;;;;;12.20;6.47;;;;;;;;;;5056932;28;20495;-67
2021/07/28 06:19:33;;;;;;;18.53;7.20;;;;;;;;;;5046467;28;20021;-66
2021/07/28 06:21:58;;;;;;;13.30;6.65;;;;;;;;;;5048578;28;20664;-66
2021/07/28 06:24:23;;;;;;;13.10;6.67;;;;;;;;;;5067321;28;20585;-66
2021/07/28 06:26:48;;;;;;;15.70;6.17;;;;;;;;;;5056848;28;20267;-66
2021/07/28 06:29:14;;;;;;;11.20;6.60;;;;;;;;;;5070723;28;20259;-66
2021/07/28 06:31:39;;;;;;;12.15;6.43;;;;;;;;;;5052307;28;20032;-66
2021/07/28 06:34:04;;;;;;;13.55;7.25;;;;;;;;;;5069541;28;20043;-66
2021/07/28 06:36:29;;;;;;;9.20;4.85;;;;;;;;;;5057301;28;20521;-67
2021/07/28 06:38:54;;;;;;;12.20;6.40;;;;;;;;;;5061259;28;20029;-66
2021/07/28 06:41:20;;;;;;;8.10;2.70;;;;;;;;;;5059260;28;20259;-66
2021/07/28 06:43:45;;;;;;;10.00;4.38;;;;;;;;;;5065900;28;20719;-67
2021/07/28 06:46:10;;;;;;;12.32;6.50;;;;;;;;;;5054371;28;20548;-65
2021/07/28 06:48:35;;;;;;;17.05;6.32;;;;;;;;;;5057285;28;20683;-68
2021/07/28 06:51:00;;;;;;;10.67;4.80;;;;;;;;;;5063380;28;20032;-67
2021/07/28 06:53:26;;;;;;;10.60;6.33;;;;;;;;;;5051203;28;20952;-68
2021/07/28 06:55:52;;;;;;;17.33;6.95;;;;;;;;;;5043113;28;20308;-66
2021/07/28 06:58:17;;;;;;;17.95;7.03;;;;;;;;;;5060340;28;20053;-68
2021/07/28 07:00:42;;;;;;;15.37;5.83;;;;;;;;;;5052348;28;20063;-68
2021/07/28 07:03:08;;;;;;;12.40;5.53;;;;;;;;;;5055737;28;20874;-67
2021/07/28 07:05:33;;;;;;;11.63;6.18;;;;;;;;;;5064968;28;20267;-68
2021/07/28 07:07:59;;;;;;;10.60;5.70;;;;;;;;;;5059008;28;20029;-68
2021/07/28 07:10:24;;;;;;;11.30;5.23;;;;;;;;;;5052345;28;20021;-68
2021/07/28 07:12:49;;;;;;;11.40;5.67;;;;;;;;;;5051021;28;20325;-68
2021/07/28 07:15:14;;;;;;;11.70;5.90;;;;;;;;;;5059201;28;20267;-68
2021/07/28 07:17:39;;;;;;;14.47;6.83;;;;;;;;;;5050850;28;20028;-68
2021/07/28 07:20:05;;;;;;;12.23;5.87;;;;;;;;;;5055850;28;20754;-68
2021/07/28 07:22:30;;;;;;;16.30;6.32;;;;;;;;;;5051838;28;20342;-67
2021/07/28 07:24:55;;;;;;;8.90;3.75;;;;;;;;;;5049983;28;20025;-67
2021/07/28 07:27:20;;;;;;;9.75;4.57;;;;;;;;;;5057856;28;20720;-68
2021/07/28 07:29:48;;;;;;;5.68;4.15;;;;;;;;;;5050899;28;20032;-68
2021/07/28 07:32:13;;;;;;;9.65;4.63;;;;;;;;;;5058824;28;20013;-68
2021/07/28 07:34:38;;;;;;;8.00;4.70;;;;;;;;;;5059014;28;20535;-67
2021/07/28 07:37:03;;;;;;;8.43;3.87;;;;;;;;;;5049685;28;20342;-67
2021/07/28 07:39:28;;;;;;;12.30;4.90;;;;;;;;;;5055876;28;20736;-68
2021/07/28 07:41:53;;;;;;;5.75;3.38;;;;;;;;;;5063049;28;20258;-69
2021/07/28 07:44:19;;;;;;;12.00;5.82;;;;;;;;;;5062117;28;20025;-68
2021/07/28 07:46:44;;;;;;;14.60;5.22;;;;;;;;;;5057960;28;20048;-68
2021/07/28 07:49:09;;;;;;;12.30;3.73;;;;;;;;;;5059302;28;20033;-68
2021/07/28 07:51:34;;;;;;;15.27;6.57;;;;;;;;;;5058673;28;20328;-68
2021/07/28 07:54:00;;;;;;;12.02;5.10;;;;;;;;;;5061056;28;20135;-67
2021/07/28 07:56:25;;;;;;;10.00;5.25;;;;;;;;;;5070539;28;20013;-68
2021/07/28 07:58:50;;;;;;;11.90;5.15;;;;;;;;;;5053856;28;20028;-68
2021/07/28 08:01:16;;;;;;;7.53;4.05;;;;;;;;;;5056403;28;20051;-68
2021/07/28 08:03:42;;;;;;;10.18;3.78;;;;;;;;;;5066342;28;20055;-68
2021/07/28 08:06:08;;;;;;;12.48;5.03;;;;;;;;;;5070836;28;20085;-68
2021/07/28 08:08:33;;;;;;;8.18;3.83;;;;;;;;;;5066391;28;20103;-67
2021/07/28 08:11:00;;;;;;;7.80;4.00;;;;;;;;;;5067305;28;20426;-68
2021/07/28 08:13:25;;;;;;;11.73;5.07;;;;;;;;;;5064719;28;20046;-67
2021/07/28 08:15:50;;;;;;;5.85;3.40;;;;;;;;;;5061313;28;20630;-68
2021/07/28 08:18:16;;;;;;;11.00;6.18;;;;;;;;;;5063524;28;20025;-68
2021/07/28 08:20:41;;;;;;;8.38;4.10;;;;;;;;;;5054160;28;20651;-68
2021/07/28 08:23:06;;;;;;;8.60;5.60;;;;;;;;;;5034790;28;20408;-68
2021/07/28 08:25:32;;;;;;;11.60;6.35;;;;;;;;;;5056536;28;20028;-67
2021/07/28 08:27:57;;;;;;;12.18;6.40;;;;;;;;;;5057256;28;20024;-68
2021/07/28 08:30:22;;;;;;;11.13;6.30;;;;;;;;;;5068923;28;20012;-67
2021/07/28 08:32:47;;;;;;;14.30;6.67;;;;;;;;;;5063653;28;20109;-68
2021/07/28 08:35:13;;;;;;;20.33;7.53;;;;;;;;;;5072471;28;20246;-67
2021/07/28 08:37:39;;;;;;;10.70;5.78;;;;;;;;;;5053479;28;20013;-67
2021/07/28 08:40:14;;;;;;;10.68;4.32;;;;;;;;;;5066956;28;20044;-68
2021/07/28 08:42:41;;;;;;;9.23;4.88;;;;;;;;;;5070408;28;20533;-69
2021/07/28 08:45:07;;;;;;;11.40;6.10;;;;;;;;;;5059655;28;20020;-68
2021/07/28 08:47:33;;;;;;;11.07;5.47;;;;;;;;;;5063070;28;20103;-67
2021/07/28 08:49:59;;;;;;;11.35;5.53;;;;;;;;;;5068432;28;20290;-68
2021/07/28 08:52:25;;;;;;;13.40;5.70;;;;;;;;;;5067934;28;20468;-68
2021/07/28 08:54:50;;;;;;;15.32;5.80;;;;;;;;;;5070418;28;20615;-69
2021/07/28 08:57:16;;;;;;;13.23;5.73;;;;;;;;;;5070013;28;20021;-68
2021/07/28 08:59:41;;;;;;;16.25;6.22;;;;;;;;;;5064815;28;20297;-67
2021/07/28 09:02:07;;;;;;;15.07;6.35;;;;;;;;;;5055177;28;20033;-68
2021/07/28 09:04:32;;;;;;;9.63;4.77;;;;;;;;;;5069706;28;20024;-67
2021/07/28 09:06:57;;;;;;;10.85;5.35;;;;;;;;;;5066841;28;20275;-68
2021/07/28 09:09:22;;;;;;;13.80;6.20;;;;;;;;;;5071650;28;20496;-68
2021/07/28 09:11:55;;;;;;;11.20;5.13;;;;;;;;;;5061104;28;20025;-68
2021/07/28 09:14:22;;;;;;;14.00;5.80;;;;;;;;;;5069144;28;20019;-68
2021/07/28 09:16:48;;;;;;;11.68;5.70;;;;;;;;;;5052330;28;20051;-67
2021/07/28 09:19:13;;;;;;;16.05;5.35;;;;;;;;;;5067514;28;20051;-68
2021/07/28 09:21:38;;;;;;;12.95;6.45;;;;;;;;;;5061371;28;20025;-68
2021/07/28 09:24:10;;;;;;;12.15;5.63;;;;;;;;;;5059099;28;20016;-69
2021/07/28 09:26:43;;;;;;;13.18;5.40;;;;;;;;;;5051742;28;20570;-68
2021/07/28 09:29:10;;;;;;;12.63;5.78;;;;;;;;;;5065938;28;20037;-68
2021/07/28 09:31:46;;;;;;;11.23;5.35;;;;;;;;;;5071949;28;20052;-68
2021/07/28 09:34:23;;;;;;;9.82;4.47;;;;;;;;;;5060235;28;20020;-68
2021/07/28 09:36:50;;;;;;;12.55;4.78;;;;;;;;;;5052666;28;20032;-67
2021/07/28 09:39:30;;;;;;;7.18;4.22;;;;;;;;;;5064867;28;20024;-68
2021/07/28 09:41:56;;;;;;;15.60;4.10;;;;;;;;;;5058637;28;20036;-68
2021/07/28 09:44:22;;;;;;;8.93;3.78;;;;;;;;;;5051900;28;20036;-68
2021/07/28 09:46:50;;;;;;;8.05;3.95;;;;;;;;;;5050539;28;20028;-69
2021/07/28 09:49:18;;;;;;;9.27;3.88;;;;;;;;;;5059053;28;20565;-68
2021/07/28 09:51:46;;;;;;;4.80;3.03;;;;;;;;;;5055549;28;20024;-69
2021/07/28 09:54:12;;;;;;;5.28;3.17;;;;;;;;;;5052362;28;20016;-69
2021/07/28 09:56:45;;;;;;;7.20;3.95;;;;;;;;;;5052138;28;20078;-69
2021/07/28 09:59:10;;;;;;;11.68;3.53;;;;;;;;;;5051859;28;20021;-69
2021/07/28 10:01:36;;;;;;;6.90;3.38;;;;;;;;;;5062561;28;20385;-69
2021/07/28 10:04:02;;;;;;;9.52;3.60;;;;;;;;;;5055572;28;20572;-68
2021/07/28 10:06:31;;;;;;;9.48;3.17;;;;;;;;;;5062512;28;20488;-68
2021/07/28 10:08:57;;;;;;;6.05;2.90;;;;;;;;;;5066277;28;20035;-68
2021/07/28 10:11:23;;;;;;;6.90;2.83;;;;;;;;;;5055510;28;20032;-68
2021/07/28 10:13:49;;;;;;;6.82;2.90;;;;;;;;;;5063772;28;20139;-68
2021/07/28 10:16:16;;;;;;;5.03;2.90;;;;;;;;;;5070600;28;20024;-68
2021/07/28 10:18:41;;;;;;;6.22;2.30;;;;;;;;;;5067564;28;20107;-68
2021/07/28 10:21:07;;;;;;;5.53;3.45;;;;;;;;;;5055939;28;20109;-67
2021/07/28 10:23:33;;;;;;;8.13;2.80;;;;;;;;;;5058914;28;20023;-68
2021/07/28 10:25:58;;;;;;;7.60;3.00;;;;;;;;;;5051848;28;20025;-68
2021/07/28 10:28:24;;;;;;;7.32;2.92;;;;;;;;;;5059573;28;20024;-68
2021/07/28 10:31:25;;;;;;;4.40;2.43;;;;;;;;;;5057837;28;20106;-68
2021/07/28 10:33:56;;;;;;;5.93;3.08;;;;;;;;;;4969273;28;20274;-67
2021/07/28 10:36:23;;;;;;;6.25;2.75;;;;;;;;;;5043978;28;20107;-68
2021/07/28 10:38:50;;;;;;;6.93;2.53;;;;;;;;;;5070322;28;20032;-68
2021/07/28 10:41:35;;;;;;;6.22;2.58;;;;;;;;;;5060639;28;20028;-68
2021/07/28 10:44:10;;;;;;;5.03;2.50;;;;;;;;;;5054202;28;20032;-68
2021/07/28 10:46:55;;;;;;;6.97;2.95;;;;;;;;;;5058199;28;20037;-67
2021/07/28 10:49:33;;;;;;;6.25;3.10;;;;;;;;;;5050582;28;20474;-67
2021/07/28 10:51:58;;;;;;;4.53;2.88;;;;;;;;;;5054231;28;20025;-68
2021/07/28 10:54:42;;;;;;;6.63;2.65;;;;;;;;;;5052907;28;20031;-67
2021/07/28 10:57:08;;;;;;;5.18;2.28;;;;;;;;;;5063531;28;20020;-68
2021/07/28 10:59:40;;;;;;;6.13;2.45;;;;;;;;;;5065072;28;20029;-68
2021/07/28 11:02:05;;;;;;;9.93;3.13;;;;;;;;;;5056211;28;20029;-68
2021/07/28 11:04:30;;;;;;;4.17;2.03;;;;;;;;;;5070383;28;20027;-68
2021/07/28 11:06:55;;;;;;;3.47;2.10;;;;;;;;;;5068373;28;20281;-68
2021/07/28 11:09:21;;;;;;;5.53;2.70;;;;;;;;;;5056586;28;20275;-68
2021/07/28 11:11:46;;;;;;;5.00;2.00;;;;;;;;;;5049518;28;20028;-67
2021/07/28 11:14:11;;;;;;;5.32;2.28;;;;;;;;;;5062592;28;20021;-68
2021/07/28 11:16:39;;;;;;;8.68;2.92;;;;;;;;;;5063286;28;20098;-68
2021/07/28 11:19:04;;;;;;;4.88;2.55;;;;;;;;;;5071081;28;20028;-66
2021/07/28 11:21:29;;;;;;;9.80;2.20;;;;;;;;;;5062004;28;20021;-66
2021/07/28 11:23:56;;;;;;;8.25;1.98;;;;;;;;;;5057478;28;20065;-65
2021/07/28 11:26:25;;;;;;;5.55;2.10;;;;;;;;;;5054666;28;20021;-66
2021/07/28 11:28:52;;;;;;;6.90;2.10;;;;;;;;;;5072450;28;20032;-66
2021/07/28 11:31:28;;;;;;;6.22;2.10;;;;;;;;;;5082332;28;20052;-66
2021/07/28 11:34:02;;;;;;;6.18;1.95;;;;;;;;;;5073660;28;20418;-66
2021/07/28 11:36:28;;;;;;;4.47;2.20;;;;;;;;;;5062937;28;20020;-67
2021/07/28 11:38:53;;;;;;;9.53;2.57;;;;;;;;;;5066922;28;20033;-65
2021/07/28 11:41:21;;;;;;;8.30;2.37;;;;;;;;;;5061135;28;20111;-67
2021/07/28 11:43:46;;;;;;;7.55;2.20;;;;;;;;;;5072982;28;20028;-69
2021/07/28 11:46:17;;;;;;;7.30;3.30;;;;;;;;;;5061535;28;20025;-68
2021/07/28 11:48:45;;;;;;;10.25;2.10;;;;;;;;;;5054372;28;20275;-69
2021/07/28 11:51:21;;;;;;;6.72;2.10;;;;;;;;;;5059659;28;20461;-68
2021/07/28 11:53:46;;;;;;;6.32;2.28;;;;;;;;;;5071870;28;20021;-69
2021/07/28 11:56:13;;;;;;;4.90;2.30;;;;;;;;;;5043950;28;20021;-67
2021/07/28 11:58:42;;;;;;;6.68;2.50;;;;;;;;;;5071585;28;20495;-68
2021/07/28 12:01:20;;;;;;;2.30;1.20;;;;;;;;;;5065095;28;20044;-66
2021/07/28 12:03:58;;;;;;;6.60;1.98;;;;;;;;;;5057807;28;20450;-66
2021/07/28 12:06:31;;;;;;;3.72;1.42;;;;;;;;;;5054764;28;20070;-67
2021/07/28 12:09:09;;;;;;;2.80;1.73;;;;;;;;;;5066296;28;20547;-70
2021/07/28 12:11:43;;;;;;;3.25;1.55;;;;;;;;;;5050569;28;20031;-69
2021/07/28 12:14:09;;;;;;;11.23;2.70;;;;;;;;;;5072418;28;20056;-67
2021/07/28 12:16:40;;;;;;;4.57;1.70;;;;;;;;;;5068033;28;20422;-66
2021/07/28 12:19:05;;;;;;;5.78;2.13;;;;;;;;;;5052666;28;20417;-66
2021/07/28 12:21:50;;;;;;;2.80;1.92;;;;;;;;;;5067645;28;20028;-68
2021/07/28 12:24:16;;;;;;;7.05;2.00;;;;;;;;;;5068871;28;20025;-66
2021/07/28 12:26:45;;;;;;;5.37;1.57;;;;;;;;;;5066221;28;20025;-67
2021/07/28 12:29:10;;;;;;;7.05;2.17;;;;;;;;;;5065855;28;20267;-67
2021/07/28 12:31:35;;;;;;;4.73;1.97;;;;;;;;;;5057912;28;20435;-67
2021/07/28 12:34:19;;;;;;;8.67;1.80;;;;;;;;;;5054029;28;20104;-66
2021/07/28 12:36:44;;;;;;;3.53;1.95;;;;;;;;;;5065773;28;20036;-66
2021/07/28 12:39:10;;;;;;;7.83;2.33;;;;;;;;;;5061410;28;20063;-66
2021/07/28 12:41:35;;;;;;;5.60;2.27;;;;;;;;;;5067865;28;20392;-66
2021/07/28 12:44:00;;;;;;;2.90;1.83;;;;;;;;;;5067247;28;20630;-66
2021/07/28 12:46:25;;;;;;;6.47;2.40;;;;;;;;;;5059406;28;20033;-69
2021/07/28 12:48:50;;;;;;;4.20;2.13;;;;;;;;;;5060669;28;20267;-68
2021/07/28 12:51:21;;;;;;;7.83;2.00;;;;;;;;;;5071214;28;20483;-67
2021/07/28 12:53:46;;;;;;;;;;;;;;;;;;5053904;28;20075;-67
2021/07/28 12:56:11;;;;;;;5.07;2.08;;;;;;;;;;5043103;28;19912;-67
2021/07/28 12:58:36;;;;;;;3.43;1.93;;;;;;;;;;5053662;28;20064;-66
2021/07/28 13:01:03;;;;;;;3.77;2.23;;;;;;;;;;5052161;28;20045;-68
2021/07/28 13:03:29;;;;;;;4.88;2.33;;;;;;;;;;5052940;28;20313;-66
2021/07/28 13:05:58;;;;;;;4.40;1.92;;;;;;;;;;5057958;28;20037;-68
2021/07/28 13:08:23;;;;;;;3.85;2.17;;;;;;;;;;5069945;28;20407;-67
2021/07/28 13:10:48;;;;;;;7.70;2.63;;;;;;;;;;5067673;28;20021;-68
2021/07/28 13:13:14;;;;;;;9.10;2.00;;;;;;;;;;5048079;28;20070;-66
2021/07/28 13:15:40;;;;;;;6.38;2.45;;;;;;;;;;5067699;28;20266;-67
2021/07/28 13:18:06;;;;;;;4.97;1.65;;;;;;;;;;5052272;28;20077;-66
2021/07/28 13:20:31;;;;;;;3.38;1.90;;;;;;;;;;5069470;28;20095;-66
2021/07/28 13:22:57;;;;;;;8.82;1.73;;;;;;;;;;5067411;28;20021;-68
2021/07/28 13:25:22;;;;;;;6.63;2.13;;;;;;;;;;5055685;28;20023;-66
2021/07/28 13:27:47;;;;;;;8.57;2.05;;;;;;;;;;5069764;28;20458;-67
2021/07/28 13:30:13;;;;;;;8.13;2.00;;;;;;;;;;5060583;28;20036;-66
2021/07/28 13:32:38;;;;;;;4.05;2.10;;;;;;;;;;5067135;28;20301;-66
2021/07/28 13:35:04;;;;;;;3.80;1.90;;;;;;;;;;5067627;28;20110;-68
2021/07/28 13:37:30;;;;;;;4.57;1.95;;;;;;;;;;5051801;28;20032;-66
2021/07/28 13:39:55;;;;;;;8.52;2.28;;;;;;;;;;5051289;28;20029;-68
2021/07/28 13:42:21;;;;;;;7.07;1.95;;;;;;;;;;5053435;28;20028;-67
2021/07/28 13:44:46;;;;;;;2.97;1.92;;;;;;;;;;5051339;28;20465;-67
2021/07/28 13:47:11;;;;;;;4.53;2.17;;;;;;;;;;5052246;28;20379;-66
2021/07/28 13:49:36;;;;;;;10.70;2.47;;;;;;;;;;5058649;28;20021;-66
2021/07/28 13:52:02;;;;;;;3.75;2.35;;;;;;;;;;5052259;28;20284;-69
2021/07/28 13:54:28;;;;;;;4.40;2.17;;;;;;;;;;5051226;28;20532;-68
2021/07/28 13:57:07;;;;;;;4.23;2.27;;;;;;;;;;5057366;28;20029;-68
2021/07/28 13:59:32;;;;;;;5.78;0.98;;;;;;;;;;5064899;28;20775;-70
2021/07/28 14:01:57;;;;;;;4.57;1.80;;;;;;;;;;5074577;28;20051;-68
2021/07/28 14:04:22;;;;;;;3.27;1.70;;;;;;;;;;5060909;28;20255;-67
2021/07/28 14:06:47;;;;;;;3.05;1.80;;;;;;;;;;5055276;28;20034;-68
2021/07/28 14:09:12;;;;;;;3.77;2.13;;;;;;;;;;5051306;28;20108;-67
2021/07/28 14:11:38;;;;;;;12.97;2.77;;;;;;;;;;5050762;28;20029;-68
2021/07/28 14:14:03;;;;;;;4.77;2.20;;;;;;;;;;5071212;28;20655;-66
2021/07/28 14:16:28;;;;;;;6.00;1.80;;;;;;;;;;5063944;28;20086;-68
2021/07/28 14:18:53;;;;;;;8.83;2.23;;;;;;;;;;5054760;28;20313;-66
2021/07/28 14:21:18;;;;;;;3.00;1.50;;;;;;;;;;5059001;28;20822;-67
2021/07/28 14:23:44;;;;;;;4.33;2.03;;;;;;;;;;5084542;28;20044;-69
2021/07/28 14:26:09;;;;;;;3.17;1.90;;;;;;;;;;5070371;28;20096;-67
2021/07/28 14:28:34;;;;;;;2.50;1.33;;;;;;;;;;5060096;28;20767;-66
2021/07/28 14:30:59;;;;;;;4.67;1.70;;;;;;;;;;5055076;28;20043;-69
2021/07/28 14:33:24;;;;;;;2.78;1.45;;;;;;;;;;5066727;28;20266;-66
2021/07/28 14:35:50;;;;;;;3.10;1.63;;;;;;;;;;5059411;28;20032;-67